Plummers Mill, Kentucky
Current Conditions -  °F | °C
As of 10:50 AM on Sunday 23 Nov 2014 (Local Time) from KSYM Reporting Station
Overcast Overcast  
Wind Chill: 59°   Ceiling: 5500
Heat Index: 59°   Visibility: 10mi
Dew Point: 37°   Wind: 6mph
Humidity: 45%   Direction: NA
Pressure: 29.96"   Gusts: NA
Location:  38.3186°N, 83.5612°W
Report Text: KSYM 231550Z AUTO VRB05KT 10SM BKN055 OVC065 15/03 A2996 RMK AO2
Loading
Personal Weather Stations






























Interactive Weather Map New forecast layout! Learn more

10-Day Weather Forecast

Advertisements
Track Severe Weather on mobile